Time;durP1;ratioP1;P1;durP2;ratioP2;P2;SDS_P1;SDS_P2;PMS_P1;PMS_P2;Temp;Humidity;BMP_temperature;BMP_pressure;BME280_temperature;BME280_humidity;BME280_pressure;Samples;Min_cycle;Max_cycle;Signal;HPM_P1;HPM_P2
2024/03/09 00:00:19;;;;;;;20.20;11.05;;;3.50;37.60;;;;;;4990402;28;20420;-62
2024/03/09 00:02:50;;;;;;;19.60;9.45;;;3.50;35.80;;;;;;4995875;28;20069;-62
2024/03/09 00:05:19;;;;;;;25.75;11.50;;;3.50;41.50;;;;;;4995084;28;20057;-62
2024/03/09 00:07:45;;;;;;;27.15;10.95;;;3.50;38.00;;;;;;4995966;28;20412;-61
2024/03/09 00:10:11;;;;;;;21.90;11.07;;;3.50;38.00;;;;;;4996822;28;20050;-62
2024/03/09 00:12:39;;;;;;;27.08;10.90;;;3.40;39.70;;;;;;4999970;28;20076;-62
2024/03/09 00:15:08;;;;;;;26.95;11.63;;;3.40;38.60;;;;;;4998120;28;20046;-61
2024/03/09 00:17:34;;;;;;;21.80;11.23;;;3.40;37.30;;;;;;4999612;28;20049;-62
2024/03/09 00:20:00;;;;;;;20.23;10.60;;;3.40;40.20;;;;;;5001488;28;20049;-62
2024/03/09 00:22:29;;;;;;;23.40;11.43;;;3.40;40.40;;;;;;5002067;28;20148;-62
2024/03/09 00:24:55;;;;;;;22.05;10.77;;;3.40;40.40;;;;;;4986945;28;20411;-62
2024/03/09 00:27:24;;;;;;;19.83;11.55;;;3.30;42.20;;;;;;4999050;28;20490;-62
2024/03/09 00:29:56;;;;;;;21.30;11.13;;;3.30;47.30;;;;;;4999497;28;20093;-62
2024/03/09 00:32:22;;;;;;;27.10;12.20;;;3.20;50.40;;;;;;4979134;28;20042;-62
2024/03/09 00:34:49;;;;;;;18.65;10.60;;;3.20;50.80;;;;;;4998332;28;20073;-62
2024/03/09 00:37:14;;;;;;;23.95;11.32;;;3.20;51.70;;;;;;4992152;28;20058;-62
2024/03/09 00:39:42;;;;;;;24.67;11.23;;;3.20;56.20;;;;;;4995218;28;20077;-62
2024/03/09 00:42:09;;;;;;;23.58;11.48;;;3.10;56.90;;;;;;4996955;28;20049;-62
2024/03/09 00:44:35;;;;;;;20.92;10.50;;;3.20;56.00;;;;;;5000941;28;20378;-62
2024/03/09 00:47:01;;;;;;;22.10;11.00;;;3.20;52.70;;;;;;5000377;28;20038;-62
2024/03/09 00:49:30;;;;;;;21.48;10.38;;;3.10;51.80;;;;;;4995379;28;20492;-62
2024/03/09 00:51:58;;;;;;;24.08;10.90;;;3.10;52.30;;;;;;4996051;28;20483;-62
2024/03/09 00:54:26;;;;;;;;;;;3.10;51.50;;;;;;5002629;28;20054;-62
2024/03/09 00:56:53;;;;;;;17.15;9.68;;;3.10;51.00;;;;;;4988073;28;19925;-62
2024/03/09 00:59:19;;;;;;;19.30;10.05;;;3.10;52.10;;;;;;4997216;28;20081;-62
2024/03/09 01:01:49;;;;;;;29.17;11.75;;;3.10;52.30;;;;;;4989992;28;20050;-62
2024/03/09 01:04:17;;;;;;;23.27;10.77;;;3.00;54.30;;;;;;4982333;28;20504;-62
2024/03/09 01:06:43;;;;;;;21.88;9.90;;;3.00;54.70;;;;;;4986486;28;20093;-62
2024/03/09 01:09:15;;;;;;;29.65;10.68;;;3.00;53.70;;;;;;4997576;28;20050;-62
2024/03/09 01:11:41;;;;;;;20.35;11.02;;;3.00;54.00;;;;;;4984295;28;20129;-62
2024/03/09 01:14:07;;;;;;;24.10;11.77;;;3.00;57.20;;;;;;4995559;28;20133;-62
2024/03/09 01:16:33;;;;;;;21.08;11.32;;;3.00;56.00;;;;;;4998510;28;20053;-62
2024/03/09 01:18:59;;;;;;;22.02;10.80;;;3.00;59.90;;;;;;4983116;28;20052;-62
2024/03/09 01:21:28;;;;;;;21.80;10.68;;;2.90;59.10;;;;;;4968957;28;20045;-62
2024/03/09 01:23:54;;;;;;;22.65;11.68;;;2.90;62.00;;;;;;4997413;28;20073;-62
2024/03/09 01:26:22;;;;;;;18.98;10.50;;;2.90;65.00;;;;;;4989682;28;20058;-62
2024/03/09 01:28:48;;;;;;;24.58;11.18;;;2.90;68.60;;;;;;5000998;28;20435;-62
2024/03/09 01:31:16;;;;;;;26.58;10.93;;;2.90;72.10;;;;;;4991197;28;20384;-62
2024/03/09 01:33:42;;;;;;;24.70;11.85;;;2.90;67.70;;;;;;5001377;28;20043;-62
2024/03/09 01:36:08;;;;;;;20.52;10.80;;;2.80;68.70;;;;;;5000317;28;20484;-62
2024/03/09 01:38:34;;;;;;;23.83;10.85;;;2.70;74.00;;;;;;5001417;28;20045;-62
2024/03/09 01:41:00;;;;;;;25.63;12.52;;;2.70;80.60;;;;;;4993466;28;20042;-62
2024/03/09 01:43:26;;;;;;;27.10;10.85;;;2.70;79.10;;;;;;4995590;28;20034;-62
2024/03/09 01:45:52;;;;;;;20.77;10.43;;;2.70;83.30;;;;;;4999685;28;20050;-62
2024/03/09 01:48:22;;;;;;;24.40;11.13;;;2.70;84.70;;;;;;4999278;28;20053;-62
2024/03/09 01:50:49;;;;;;;21.90;10.98;;;2.70;89.60;;;;;;4999029;28;20511;-62
2024/03/09 01:53:18;;;;;;;19.63;10.93;;;2.70;86.70;;;;;;4998708;28;20077;-62
2024/03/09 01:55:48;;;;;;;22.08;10.82;;;2.70;90.30;;;;;;4994604;28;20058;-62
2024/03/09 01:58:19;;;;;;;21.70;9.93;;;2.70;91.20;;;;;;4993760;28;20205;-62
2024/03/09 02:00:54;;;;;;;21.90;11.07;;;2.60;93.10;;;;;;4998584;28;20982;-62
2024/03/09 02:03:22;;;;;;;20.13;10.43;;;2.60;94.70;;;;;;4997462;28;20805;-62
2024/03/09 02:05:50;;;;;;;25.88;12.57;;;2.60;95.20;;;;;;5003493;28;20048;-62
2024/03/09 02:08:20;;;;;;;23.80;11.23;;;2.50;97.60;;;;;;4997831;28;20550;-62
2024/03/09 02:10:47;;;;;;;23.25;12.13;;;2.50;98.20;;;;;;4992311;28;20124;-62
2024/03/09 02:13:14;;;;;;;24.60;12.35;;;2.50;99.90;;;;;;4993134;28;20100;-62
2024/03/09 02:15:47;;;;;;;21.25;11.40;;;2.50;99.90;;;;;;5003969;28;20508;-62
2024/03/09 02:18:13;;;;;;;20.95;11.27;;;2.50;99.90;;;;;;5004468;28;20049;-62
2024/03/09 02:20:40;;;;;;;22.27;10.63;;;2.50;99.90;;;;;;5000891;28;20049;-62
2024/03/09 02:23:08;;;;;;;27.77;11.57;;;2.40;99.90;;;;;;4990763;28;20049;-62
2024/03/09 02:25:35;;;;;;;25.55;11.50;;;2.40;99.90;;;;;;5001604;28;20296;-62
2024/03/09 02:28:02;;;;;;;25.08;11.93;;;2.40;99.90;;;;;;5003206;28;20519;-62
2024/03/09 02:30:29;;;;;;;28.77;12.68;;;2.40;99.90;;;;;;4994657;28;20137;-62
2024/03/09 02:32:57;;;;;;;22.27;12.00;;;2.30;99.90;;;;;;5002395;28;20051;-62
2024/03/09 02:35:23;;;;;;;22.40;11.90;;;2.30;99.90;;;;;;4999834;28;20402;-61
2024/03/09 02:37:49;;;;;;;27.35;12.82;;;2.30;99.90;;;;;;5002693;28;20052;-62
2024/03/09 02:40:14;;;;;;;22.02;11.07;;;2.30;99.90;;;;;;4998767;28;20125;-62
2024/03/09 02:43:05;;;;;;;24.85;11.13;;;2.20;99.90;;;;;;4976187;28;20042;-61
2024/03/09 02:45:30;;;;;;;21.55;11.55;;;2.20;99.90;;;;;;5004218;28;20049;-62
2024/03/09 02:47:57;;;;;;;27.17;12.90;;;2.20;99.90;;;;;;5002970;28;20088;-62
2024/03/09 02:50:24;;;;;;;32.85;11.30;;;2.20;99.90;;;;;;5004243;28;20056;-62
2024/03/09 02:52:50;;;;;;;21.45;11.50;;;2.20;99.90;;;;;;4998900;28;20050;-62
2024/03/09 02:55:16;;;;;;;24.65;11.20;;;2.20;99.90;;;;;;4985097;28;20049;-62
2024/03/09 02:57:42;;;;;;;23.05;12.00;;;2.30;99.90;;;;;;4998760;28;20483;-62
2024/03/09 03:00:12;;;;;;;26.85;12.10;;;2.30;99.90;;;;;;5002945;28;20088;-62
2024/03/09 03:05:23;;;;;;;22.30;11.80;;;2.20;99.90;;;;;;5003430;28;20492;-62
2024/03/09 03:07:52;;;;;;;19.95;10.52;;;2.20;99.90;;;;;;4998947;28;20046;-62
2024/03/09 03:10:18;;;;;;;24.42;12.85;;;2.10;99.90;;;;;;4998901;28;20042;-62
2024/03/09 03:12:47;;;;;;;23.58;11.35;;;2.10;99.90;;;;;;4996901;28;20494;-62
2024/03/09 03:15:13;;;;;;;24.55;11.77;;;2.10;99.90;;;;;;5004284;28;20516;-62
2024/03/09 03:17:39;;;;;;;26.80;11.48;;;2.10;99.90;;;;;;4999810;28;20104;-62
2024/03/09 03:20:06;;;;;;;22.63;11.57;;;2.10;99.90;;;;;;5003378;28;20488;-62
2024/03/09 03:22:32;;;;;;;27.10;11.48;;;2.10;99.90;;;;;;4998399;28;20046;-62
2024/03/09 03:24:58;;;;;;;28.77;13.25;;;2.10;99.90;;;;;;5003274;28;20053;-62
2024/03/09 03:27:24;;;;;;;26.08;12.38;;;2.10;99.90;;;;;;5001863;28;20068;-62
2024/03/09 03:29:56;;;;;;;23.27;12.90;;;2.10;99.90;;;;;;5002772;28;20056;-62
2024/03/09 03:32:22;;;;;;;22.73;12.07;;;2.10;99.90;;;;;;5000010;28;20052;-62
2024/03/09 03:34:49;;;;;;;22.27;11.95;;;2.10;99.90;;;;;;5001960;28;20038;-62
2024/03/09 03:37:17;;;;;;;27.67;13.45;;;2.10;99.90;;;;;;4998685;28;20057;-62
2024/03/09 03:39:44;;;;;;;28.15;13.05;;;2.00;99.90;;;;;;5000198;28;20041;-62
2024/03/09 03:42:12;;;;;;;20.40;11.35;;;2.00;99.90;;;;;;5001558;28;20460;-62
2024/03/09 03:44:40;;;;;;;24.48;12.23;;;2.00;99.90;;;;;;4989781;28;20086;-62
2024/03/09 03:47:07;;;;;;;23.92;13.07;;;2.00;99.90;;;;;;4996878;28;20377;-62
2024/03/09 03:49:36;;;;;;;21.92;11.38;;;1.90;99.90;;;;;;5002828;28;20439;-62
2024/03/09 03:52:03;;;;;;;22.88;12.23;;;2.00;99.90;;;;;;5001938;28;20050;-62
2024/03/09 03:54:28;;;;;;;27.60;13.50;;;1.90;99.90;;;;;;4999928;28;20607;-62
2024/03/09 03:56:54;;;;;;;24.10;12.15;;;1.90;99.90;;;;;;5002158;28;20161;-62
2024/03/09 03:59:20;;;;;;;29.70;12.63;;;1.90;99.90;;;;;;4999941;28;20050;-62
2024/03/09 04:01:46;;;;;;;28.20;13.20;;;1.90;99.90;;;;;;4999279;28;20137;-62
2024/03/09 04:04:12;;;;;;;30.50;14.23;;;1.90;99.90;;;;;;4999700;28;20056;-62
2024/03/09 04:06:44;;;;;;;29.95;14.02;;;1.80;99.90;;;;;;4999366;28;20042;-62
2024/03/09 04:09:13;;;;;;;24.95;13.25;;;1.90;99.90;;;;;;4991588;28;20671;-62
2024/03/09 04:11:40;;;;;;;29.67;14.20;;;1.80;99.90;;;;;;5000178;28;20120;-62
2024/03/09 04:14:06;;;;;;;27.58;14.30;;;1.80;99.90;;;;;;4982986;28;20408;-62
2024/03/09 04:16:33;;;;;;;26.80;13.88;;;1.80;99.90;;;;;;4998596;28;20061;-62
2024/03/09 04:19:02;;;;;;;29.10;13.02;;;1.80;99.90;;;;;;5002242;28;20492;-62
2024/03/09 04:21:28;;;;;;;31.20;13.88;;;1.80;99.90;;;;;;4999957;28;20049;-62
2024/03/09 04:23:54;;;;;;;25.58;12.95;;;1.80;99.90;;;;;;5002783;28;20533;-62
2024/03/09 04:26:21;;;;;;;23.13;12.88;;;1.80;99.90;;;;;;4993086;28;20441;-62
2024/03/09 04:28:47;;;;;;;30.27;14.65;;;1.80;99.90;;;;;;5002835;28;20046;-62
2024/03/09 04:31:13;;;;;;;30.33;14.85;;;1.80;99.90;;;;;;4992144;28;20042;-62
2024/03/09 04:33:40;;;;;;;30.90;14.88;;;1.70;99.90;;;;;;4993322;28;20519;-62
2024/03/09 04:36:07;;;;;;;24.90;13.50;;;1.70;99.90;;;;;;4999700;28;20718;-62
2024/03/09 04:38:33;;;;;;;31.48;15.10;;;1.70;99.90;;;;;;4999786;28;20500;-62
2024/03/09 04:40:59;;;;;;;35.22;14.48;;;1.70;99.90;;;;;;4999843;28;20496;-62
2024/03/09 04:43:31;;;;;;;27.52;13.95;;;1.70;99.90;;;;;;4988783;28;20049;-62
2024/03/09 04:45:57;;;;;;;31.17;14.70;;;1.70;99.90;;;;;;5002281;28;20057;-62
2024/03/09 04:48:23;;;;;;;28.50;13.07;;;1.60;99.90;;;;;;5000784;28;20068;-62
2024/03/09 04:50:49;;;;;;;26.67;13.93;;;1.60;99.90;;;;;;4999499;28;20527;-62
2024/03/09 04:53:15;;;;;;;29.45;14.70;;;1.60;99.90;;;;;;4997104;28;20049;-62
2024/03/09 04:55:48;;;;;;;28.67;14.23;;;1.50;99.90;;;;;;5002118;28;20100;-62
2024/03/09 04:58:15;;;;;;;30.08;14.00;;;1.50;99.90;;;;;;4999483;28;20598;-62
2024/03/09 05:00:41;;;;;;;29.77;14.65;;;1.50;99.90;;;;;;4988971;28;20049;-62
2024/03/09 05:03:07;;;;;;;33.53;15.57;;;1.50;99.90;;;;;;4992376;28;20042;-62
2024/03/09 05:05:34;;;;;;;30.17;15.32;;;1.50;99.90;;;;;;4994216;28;20038;-62
2024/03/09 05:08:02;;;;;;;27.23;13.98;;;1.50;99.90;;;;;;4990609;28;20050;-62
2024/03/09 05:10:30;;;;;;;29.50;14.93;;;1.50;99.90;;;;;;4986737;28;20603;-62
2024/03/09 05:12:56;;;;;;;24.13;13.02;;;1.50;99.90;;;;;;4992403;28;20082;-62
2024/03/09 05:15:29;;;;;;;25.73;14.18;;;1.40;99.90;;;;;;4992478;28;20701;-62
2024/03/09 05:17:56;;;;;;;31.27;14.45;;;1.50;99.90;;;;;;4994171;28;20054;-63
2024/03/09 05:20:31;;;;;;;32.50;15.65;;;1.50;99.90;;;;;;4999776;28;20130;-62
2024/03/09 05:22:59;;;;;;;30.25;14.75;;;1.50;99.90;;;;;;4999417;28;20050;-62
2024/03/09 05:25:25;;;;;;;32.67;14.05;;;1.40;99.90;;;;;;4996447;28;20103;-62
2024/03/09 05:27:52;;;;;;;25.00;15.00;;;1.40;99.90;;;;;;4994025;28;20054;-62
2024/03/09 05:30:22;;;;;;;25.70;14.00;;;1.40;99.90;;;;;;4990059;28;20061;-62
2024/03/09 05:32:53;;;;;;;31.67;15.50;;;1.40;99.90;;;;;;4998067;28;20050;-62
2024/03/09 05:35:38;;;;;;;29.10;14.85;;;1.40;99.90;;;;;;4995697;28;20081;-62
2024/03/09 05:38:04;;;;;;;31.27;16.30;;;1.40;99.90;;;;;;5000397;28;20045;-62
2024/03/09 05:40:30;;;;;;;29.85;14.77;;;1.40;99.90;;;;;;4999285;28;20677;-62
2024/03/09 05:42:58;;;;;;;33.55;15.00;;;1.40;99.90;;;;;;4994332;28;20404;-62
2024/03/09 05:45:24;;;;;;;32.08;15.52;;;1.40;99.90;;;;;;4992612;28;20058;-62
2024/03/09 05:47:55;;;;;;;27.48;14.85;;;1.40;99.90;;;;;;4994103;28;20042;-62
2024/03/09 05:50:28;;;;;;;30.95;14.85;;;1.40;99.90;;;;;;4992182;28;20065;-62
2024/03/09 05:52:57;;;;;;;36.10;14.40;;;1.40;99.90;;;;;;5002808;28;20049;-62
2024/03/09 05:55:24;;;;;;;36.00;15.43;;;1.40;99.90;;;;;;5002090;28;20085;-62
2024/03/09 05:57:51;;;;;;;35.13;15.38;;;1.40;99.90;;;;;;4999662;28;20045;-62
2024/03/09 06:00:19;;;;;;;32.83;15.63;;;1.40;99.90;;;;;;5005105;28;20038;-62
2024/03/09 06:02:46;;;;;;;32.67;14.88;;;1.30;99.90;;;;;;4998600;28;20097;-62
2024/03/09 06:05:13;;;;;;;32.83;16.10;;;1.30;99.90;;;;;;5001011;28;20443;-62
2024/03/09 06:07:40;;;;;;;33.17;16.17;;;1.30;99.90;;;;;;4999800;28;20053;-62
2024/03/09 06:10:08;;;;;;;32.03;14.98;;;1.30;99.90;;;;;;5004734;28;20049;-62
2024/03/09 06:12:35;;;;;;;26.88;14.40;;;1.40;99.90;;;;;;5002279;28;20500;-62
2024/03/09 06:15:03;;;;;;;35.85;14.13;;;1.40;99.90;;;;;;5002103;28;20127;-62
2024/03/09 06:17:29;;;;;;;27.98;14.93;;;1.50;99.90;;;;;;4997288;28;20034;-62
2024/03/09 06:19:55;;;;;;;34.63;15.02;;;1.50;99.90;;;;;;5001969;28;20033;-62
2024/03/09 06:22:21;;;;;;;29.73;13.50;;;1.50;99.90;;;;;;4995754;28;20095;-62
2024/03/09 06:24:47;;;;;;;37.03;16.05;;;1.50;99.90;;;;;;5004796;28;20042;-62
2024/03/09 06:27:13;;;;;;;34.10;14.40;;;1.60;99.90;;;;;;4997176;28;20042;-62
2024/03/09 06:29:42;;;;;;;32.05;15.63;;;1.50;99.90;;;;;;5000467;28;20045;-62
2024/03/09 06:32:08;;;;;;;29.58;15.82;;;1.60;99.90;;;;;;5000893;28;20508;-62
2024/03/09 06:34:33;;;;;;;30.40;15.05;;;1.50;99.90;;;;;;5003732;28;20038;-62
2024/03/09 06:36:59;;;;;;;24.95;12.95;;;1.60;99.90;;;;;;5001290;28;20600;-62
2024/03/09 06:39:30;;;;;;;33.75;15.50;;;1.60;99.90;;;;;;5003055;28;20050;-62
2024/03/09 06:41:57;;;;;;;32.63;15.48;;;1.60;99.90;;;;;;4998695;28;20396;-62
2024/03/09 06:44:23;;;;;;;33.50;15.57;;;1.70;99.90;;;;;;4997088;28;20045;-62
2024/03/09 06:46:52;;;;;;;23.25;11.18;;;1.80;99.90;;;;;;5000919;28;20046;-63
2024/03/09 06:49:18;;;;;;;27.33;13.18;;;1.90;99.90;;;;;;4995227;28;20053;-63
2024/03/09 06:51:47;;;;;;;34.58;15.45;;;1.80;99.90;;;;;;4992780;28;20140;-63
2024/03/09 06:54:13;;;;;;;35.00;15.07;;;1.90;99.90;;;;;;4999238;28;20085;-62
2024/03/09 06:56:40;;;;;;;32.03;15.88;;;1.90;99.90;;;;;;5001694;28;20077;-62
2024/03/09 06:59:07;;;;;;;28.67;13.50;;;2.00;99.90;;;;;;4989958;28;20879;-62
2024/03/09 07:01:34;;;;;;;33.38;16.58;;;2.10;99.90;;;;;;4995297;28;20078;-62
2024/03/09 07:04:03;;;;;;;35.75;16.17;;;2.10;99.90;;;;;;4998957;28;20053;-62
2024/03/09 07:06:34;;;;;;;36.35;15.77;;;2.20;99.90;;;;;;5000810;28;20508;-63
2024/03/09 07:09:00;;;;;;;31.98;17.27;;;2.30;99.90;;;;;;5002095;28;20073;-62
2024/03/09 07:11:26;;;;;;;22.38;11.52;;;2.30;99.90;;;;;;5003505;28;20042;-62
2024/03/09 07:13:55;;;;;;;47.90;17.65;;;2.40;99.90;;;;;;4993093;28;20060;-62
2024/03/09 07:16:22;;;;;;;38.08;16.42;;;2.40;99.90;;;;;;5001960;28;20435;-62
2024/03/09 07:18:49;;;;;;;35.33;15.27;;;2.50;99.90;;;;;;4999595;28;20059;-62
2024/03/09 07:21:15;;;;;;;35.17;16.92;;;2.50;99.90;;;;;;5004521;28;20053;-63
2024/03/09 07:23:41;;;;;;;29.13;14.32;;;2.60;99.90;;;;;;4987333;28;20060;-62
2024/03/09 07:26:11;;;;;;;33.10;16.23;;;2.70;99.90;;;;;;5000660;28;20037;-62
2024/03/09 07:28:38;;;;;;;33.40;15.38;;;2.70;99.90;;;;;;5001562;28;20058;-62
2024/03/09 07:31:05;;;;;;;38.63;17.98;;;2.80;99.90;;;;;;5000726;28;20099;-62
2024/03/09 07:33:32;;;;;;;41.33;16.98;;;2.80;99.90;;;;;;5002361;28;20049;-62
2024/03/09 07:35:59;;;;;;;30.15;13.68;;;2.90;99.90;;;;;;4972346;28;20326;-62
2024/03/09 07:38:24;;;;;;;28.08;14.20;;;2.90;99.90;;;;;;5001824;28;20492;-62
2024/03/09 07:40:50;;;;;;;42.13;16.40;;;2.90;99.90;;;;;;5001116;28;20045;-62
2024/03/09 07:43:19;;;;;;;23.90;12.98;;;2.90;99.90;;;;;;4996459;28;20042;-62
2024/03/09 07:45:46;;;;;;;37.67;16.98;;;3.00;99.90;;;;;;5002989;28;20056;-62
2024/03/09 07:48:16;;;;;;;36.95;16.80;;;3.10;99.90;;;;;;5001405;28;20046;-63
2024/03/09 07:50:49;;;;;;;32.33;16.85;;;3.20;99.90;;;;;;4994925;28;20042;-62
2024/03/09 07:53:15;;;;;;;34.92;16.48;;;3.20;99.90;;;;;;4993463;28;20057;-63
2024/03/09 07:55:40;;;;;;;39.03;17.75;;;3.30;99.90;;;;;;5003219;28;20042;-62
2024/03/09 07:58:06;;;;;;;31.13;13.75;;;3.30;99.90;;;;;;4999043;28;20521;-62
2024/03/09 08:00:35;;;;;;;28.17;14.60;;;3.50;99.90;;;;;;4966552;28;20042;-62
2024/03/09 08:03:02;;;;;;;31.65;15.68;;;3.50;99.90;;;;;;4999473;28;20054;-62
2024/03/09 08:05:28;;;;;;;35.15;17.65;;;3.60;99.90;;;;;;4990411;28;20160;-62
2024/03/09 08:07:55;;;;;;;29.33;13.65;;;3.60;99.90;;;;;;5001301;28;20057;-62
2024/03/09 08:10:25;;;;;;;38.10;18.25;;;3.70;99.90;;;;;;5000347;28;20042;-62
2024/03/09 08:12:52;;;;;;;35.40;17.60;;;3.80;99.90;;;;;;4995934;28;20054;-62
2024/03/09 08:15:19;;;;;;;36.13;16.75;;;3.90;99.90;;;;;;5002230;28;20081;-62
2024/03/09 08:17:49;;;;;;;28.25;10.85;;;4.00;99.90;;;;;;4999500;28;20515;-63
2024/03/09 08:20:21;;;;;;;31.90;15.05;;;4.00;99.90;;;;;;5002274;28;20133;-62
2024/03/09 08:22:47;;;;;;;35.75;17.63;;;4.10;99.90;;;;;;4994394;28;20046;-62
2024/03/09 08:25:15;;;;;;;33.38;17.27;;;4.10;99.90;;;;;;5000514;28;20050;-62
2024/03/09 08:27:43;;;;;;;26.77;14.07;;;4.20;99.90;;;;;;4999417;28;20054;-62
2024/03/09 08:30:17;;;;;;;34.17;16.85;;;4.20;99.90;;;;;;5000972;28;20762;-62
2024/03/09 08:32:53;;;;;;;34.70;12.43;;;4.30;99.90;;;;;;4986857;28;20046;-63
2024/03/09 08:35:20;;;;;;;37.95;16.73;;;4.40;99.90;;;;;;4995221;28;20552;-62
2024/03/09 08:37:48;;;;;;;35.58;17.10;;;4.50;99.90;;;;;;4984954;28;20046;-62
2024/03/09 08:40:18;;;;;;;34.70;16.48;;;4.70;99.90;;;;;;4995914;28;20578;-63
2024/03/09 08:42:48;;;;;;;36.13;16.13;;;4.70;99.90;;;;;;4996436;28;20050;-62
2024/03/09 08:45:15;;;;;;;20.55;11.90;;;4.70;99.90;;;;;;5001075;28;20132;-62
2024/03/09 08:47:41;;;;;;;39.10;17.58;;;4.80;99.90;;;;;;4999865;28;20476;-62
2024/03/09 08:50:11;;;;;;;36.15;18.27;;;4.90;99.90;;;;;;4997258;28;20042;-62
2024/03/09 08:52:40;;;;;;;36.10;16.83;;;5.00;99.90;;;;;;4997914;28;20401;-62
2024/03/09 08:55:10;;;;;;;30.98;16.42;;;5.10;99.90;;;;;;4995088;28;20050;-62
2024/03/09 08:57:40;;;;;;;34.45;18.63;;;5.20;99.90;;;;;;4998734;28;20045;-61
2024/03/09 09:00:07;;;;;;;28.67;13.85;;;5.20;99.90;;;;;;4999940;28;20058;-62
2024/03/09 09:02:36;;;;;;;25.35;12.30;;;5.20;99.90;;;;;;4991786;28;20038;-62
2024/03/09 09:05:11;;;;;;;28.63;16.10;;;5.30;99.90;;;;;;5000928;28;20053;-62
2024/03/09 09:07:40;;;;;;;30.65;16.63;;;5.40;99.90;;;;;;4996995;28;20069;-62
2024/03/09 09:10:09;;;;;;;20.27;9.97;;;5.40;99.90;;;;;;4999767;28;20045;-62
2024/03/09 09:12:40;;;;;;;29.27;13.75;;;5.60;99.90;;;;;;4998099;28;20064;-62
2024/03/09 09:15:10;;;;;;;33.23;18.63;;;5.70;98.40;;;;;;4997197;28;20688;-62
2024/03/09 09:17:36;;;;;;;;;;;5.80;97.20;;;;;;4997651;28;20076;-62
2024/03/09 09:20:04;;;;;;;21.10;10.95;;;5.70;79.80;;;;;;4998225;28;20375;-62
2024/03/09 09:22:31;;;;;;;30.65;13.88;;;5.70;74.70;;;;;;4987466;28;20414;-63
2024/03/09 09:24:57;;;;;;;25.58;13.27;;;5.70;80.60;;;;;;5000904;28;20099;-62
2024/03/09 09:27:26;;;;;;;30.75;16.70;;;5.80;97.60;;;;;;4995104;28;20459;-62
2024/03/09 09:29:53;;;;;;;27.83;14.68;;;5.90;90.30;;;;;;4995208;28;20089;-62
2024/03/09 09:32:19;;;;;;;33.03;16.98;;;6.10;87.20;;;;;;4992042;28;20038;-62
2024/03/09 09:34:45;;;;;;;15.90;9.63;;;6.10;74.30;;;;;;4993038;28;20042;-61
2024/03/09 09:37:12;;;;;;;33.22;15.30;;;6.10;65.10;;;;;;4991552;28;20153;-62
2024/03/09 09:39:42;;;;;;;32.15;15.45;;;6.20;57.00;;;;;;4997003;28;20053;-62
2024/03/09 09:42:09;;;;;;;37.92;18.48;;;6.30;71.10;;;;;;4998118;28;20050;-61
2024/03/09 09:44:36;;;;;;;41.67;20.13;;;6.30;51.50;;;;;;4998176;28;20058;-61
2024/03/09 09:47:02;;;;;;;37.17;19.15;;;6.30;46.70;;;;;;4999297;28;20050;-62
2024/03/09 09:49:29;;;;;;;32.00;17.65;;;6.40;51.30;;;;;;4992264;28;20093;-61
2024/03/09 09:51:58;;;;;;;30.38;16.92;;;6.50;49.40;;;;;;4995748;28;20104;-62
2024/03/09 09:54:28;;;;;;;29.50;15.87;;;6.50;39.00;;;;;;4998088;28;20080;-62
2024/03/09 09:56:55;;;;;;;24.42;12.93;;;6.60;29.80;;;;;;4999269;28;20057;-62
2024/03/09 09:59:22;;;;;;;23.08;9.40;;;6.50;20.90;;;;;;4995358;28;20038;-62
2024/03/09 10:01:48;;;;;;;29.42;16.33;;;6.70;56.20;;;;;;4993863;28;20045;-61
2024/03/09 10:04:18;;;;;;;30.00;15.82;;;6.90;46.00;;;;;;4992788;28;20064;-62
2024/03/09 10:06:45;;;;;;;34.55;18.75;;;6.90;17.30;;;;;;4994111;28;20408;-62
2024/03/09 10:09:24;;;;;;;43.78;21.00;;;7.00;24.50;;;;;;4998123;28;20121;-62
2024/03/09 10:11:50;;;;;;;35.85;17.63;;;7.00;16.70;;;;;;4991990;28;20052;-62
2024/03/09 10:14:30;;;;;;;29.08;15.68;;;7.10;27.30;;;;;;5000906;28;20034;-62
2024/03/09 10:17:22;;;;;;;29.38;15.90;;;7.20;19.30;;;;;;4999377;28;20065;-62
2024/03/09 10:19:49;;;;;;;27.92;15.30;;;7.20;5.60;;;;;;4996841;28;20460;-62
2024/03/09 10:22:15;;;;;;;27.08;16.10;;;7.10;1.00;;;;;;5002472;28;20096;-62
2024/03/09 10:25:08;;;;;;;30.55;15.68;;;7.20;10.80;;;;;;4994364;28;20148;-62
2024/03/09 10:27:34;;;;;;;26.60;13.32;;;7.30;24.20;;;;;;5001206;28;20061;-62
2024/03/09 10:30:10;;;;;;;29.67;14.43;;;7.40;1.00;;;;;;5002356;28;20046;-63
2024/03/09 10:32:37;;;;;;;20.73;10.23;;;7.50;1.00;;;;;;5003368;28;20061;-63
2024/03/09 10:35:09;;;;;;;27.48;14.90;;;7.50;4.40;;;;;;4995499;28;20060;-62
2024/03/09 10:37:38;;;;;;;29.08;16.25;;;7.60;3.90;;;;;;5001728;28;20081;-62
2024/03/09 10:40:13;;;;;;;24.45;12.65;;;7.60;1.00;;;;;;5004507;28;20442;-62
2024/03/09 10:42:47;;;;;;;27.08;15.07;;;7.70;1.00;;;;;;4997036;28;20420;-63
2024/03/09 10:45:21;;;;;;;30.00;15.98;;;7.80;1.00;;;;;;5003696;28;20061;-62
2024/03/09 10:48:09;;;;;;;33.42;14.40;;;7.90;1.00;;;;;;5003691;28;20570;-62
2024/03/09 10:51:14;;;;;;;22.27;11.48;;;7.90;1.00;;;;;;5000689;28;20046;-62
2024/03/09 10:54:11;;;;;;;32.03;16.85;;;8.00;1.00;;;;;;4998428;28;20053;-62
2024/03/09 10:56:39;;;;;;;27.25;15.38;;;8.20;4.80;;;;;;5003069;28;20084;-63
2024/03/09 10:59:23;;;;;;;18.92;10.10;;;8.10;1.00;;;;;;5004231;28;20108;-62
2024/03/09 11:01:50;;;;;;;25.80;13.27;;;8.00;1.00;;;;;;4990165;28;20052;-62
2024/03/09 11:04:24;;;;;;;11.88;4.78;;;8.00;1.00;;;;;;4994141;28;20046;-62
2024/03/09 11:06:51;;;;;;;29.23;15.07;;;8.10;1.00;;;;;;4998783;28;20085;-62
2024/03/09 11:09:19;;;;;;;31.45;15.43;;;8.00;1.00;;;;;;5002808;28;20115;-62
2024/03/09 11:11:48;;;;;;;27.83;15.20;;;8.20;1.00;;;;;;4998998;28;20071;-63
2024/03/09 11:14:16;;;;;;;25.52;12.65;;;8.40;1.00;;;;;;4992920;28;20071;-63
2024/03/09 11:16:42;;;;;;;24.23;13.43;;;8.40;1.00;;;;;;5002483;28;20160;-62
2024/03/09 11:19:14;;;;;;;26.77;16.05;;;8.40;1.00;;;;;;5003889;28;20057;-62
2024/03/09 11:21:40;;;;;;;25.88;13.32;;;8.40;1.00;;;;;;5003048;28;20038;-62
2024/03/09 11:24:12;;;;;;;33.95;15.50;;;8.40;1.00;;;;;;5000649;28;20042;-62
2024/03/09 11:26:45;;;;;;;20.40;9.45;;;8.50;1.00;;;;;;4992286;28;20188;-63
2024/03/09 11:29:12;;;;;;;26.60;14.07;;;8.40;1.00;;;;;;4999335;28;20129;-63
2024/03/09 11:31:41;;;;;;;29.10;16.85;;;8.30;1.00;;;;;;4994908;28;20042;-62
2024/03/09 11:34:23;;;;;;;24.08;14.77;;;8.20;1.00;;;;;;4994792;28;20053;-62
2024/03/09 11:36:54;;;;;;;29.08;15.18;;;8.40;1.00;;;;;;4997042;28;20476;-62
2024/03/09 11:39:22;;;;;;;18.23;9.98;;;8.50;1.00;;;;;;5001358;28;20750;-63
2024/03/09 11:41:50;;;;;;;23.60;13.88;;;8.70;1.00;;;;;;4994940;28;20164;-63
2024/03/09 11:44:17;;;;;;;23.80;12.77;;;8.70;1.00;;;;;;4998496;28;20108;-62
2024/03/09 11:46:43;;;;;;;21.52;12.68;;;8.70;1.00;;;;;;5000433;28;20046;-63
2024/03/09 11:49:09;;;;;;;28.70;16.25;;;8.70;1.00;;;;;;5000401;28;20495;-62
2024/03/09 11:51:36;;;;;;;27.83;15.27;;;8.70;1.00;;;;;;4997593;28;20053;-62
2024/03/09 11:54:03;;;;;;;24.08;13.55;;;8.80;1.00;;;;;;5001365;28;20057;-62
2024/03/09 11:56:31;;;;;;;23.33;14.30;;;9.00;1.00;;;;;;4999986;28;20444;-62
2024/03/09 11:58:56;;;;;;;24.15;14.68;;;9.00;1.00;;;;;;4999389;28;20058;-62
2024/03/09 12:01:23;;;;;;;23.02;14.52;;;9.00;1.00;;;;;;5000385;28;20046;-62
2024/03/09 12:03:59;;;;;;;27.70;15.68;;;9.10;1.00;;;;;;4996950;28;20046;-62
2024/03/09 12:06:27;;;;;;;14.13;9.07;;;9.20;1.00;;;;;;4984491;28;20049;-62
2024/03/09 12:08:54;;;;;;;26.65;14.98;;;9.20;1.00;;;;;;4999221;28;20567;-62
2024/03/09 12:11:25;;;;;;;21.25;12.00;;;9.30;1.00;;;;;;4998998;28;20547;-62
2024/03/09 12:13:52;;;;;;;25.75;14.48;;;9.50;1.00;;;;;;5000532;28;20097;-62
2024/03/09 12:16:19;;;;;;;23.80;13.85;;;9.30;1.00;;;;;;4995083;28;20474;-62
2024/03/09 12:18:50;;;;;;;25.50;14.25;;;9.30;1.00;;;;;;5002317;28;20571;-62
2024/03/09 12:21:20;;;;;;;28.75;14.38;;;9.30;1.00;;;;;;4999074;28;20399;-62
2024/03/09 12:23:52;;;;;;;21.67;11.10;;;9.40;1.00;;;;;;4999764;28;20093;-62
2024/03/09 12:26:20;;;;;;;22.38;14.07;;;9.30;1.00;;;;;;4991814;28;20050;-62
2024/03/09 12:28:46;;;;;;;23.50;13.73;;;9.30;1.00;;;;;;4991306;28;20411;-62
2024/03/09 12:31:16;;;;;;;24.70;13.68;;;9.40;1.00;;;;;;4995437;28;20435;-62
2024/03/09 12:33:43;;;;;;;20.87;11.83;;;9.60;1.00;;;;;;4991639;28;20048;-62
2024/03/09 12:36:17;;;;;;;24.85;14.95;;;9.60;1.00;;;;;;5001526;28;20121;-62
2024/03/09 12:38:44;;;;;;;19.65;12.25;;;9.80;1.00;;;;;;5001501;28;20432;-62
2024/03/09 12:41:31;;;;;;;21.58;13.40;;;9.90;1.00;;;;;;5002033;28;20056;-62
2024/03/09 12:44:05;;;;;;;24.02;13.68;;;9.80;1.00;;;;;;4998443;28;20060;-62
2024/03/09 12:46:34;;;;;;;23.30;13.68;;;9.80;1.00;;;;;;4996568;28;20054;-62
2024/03/09 12:49:04;;;;;;;13.90;9.07;;;10.00;1.00;;;;;;4993408;28;20054;-62